Archival Weather

Tokyo Intl

Tokyo Intl, Japan (RJTT)

Report from: Friday, June 24, 2022 12:30 AM JST
Current time: Tuesday, August 16, 2022 9:29 AM JST

Current weather
Weather history
Weather forecast

Temperature23.0°C (73.4°F)
Dew point21.0°C (69.8°F)
Winds 5 kts (2.6 m/s, 5.8 mph) South-Southeast (150°)
Visibility6.2 mi. (10 km)
Clouds Few clouds 500 ft. (152 m)
Few clouds 800 ft. (244 m)
Ceiling: Broken clouds 800 ft. (244 m)
Broken clouds 1,300 ft. (396 m)
Broken clouds 2,000 ft. (610 m)
Altimeter29.83 in.Hg (1010 mB)
Relative humidity89 %
Density altitude1,376 ft. (419 m)
Flight conditions Instrument Meteorological Conditions
Raw dataRJTT 231530Z 15005KT 9999 FEW008 BKN013 BKN020 23/21 Q1010 TEMPO FEW005 BKN008
An error has occurred. This application may no longer respond until reloaded. Reload 🗙